createdAt,value
2023-03-16T00:02:03.793Z,100995.47
2023-03-16T00:04:31.573Z,100994.47
2023-03-16T00:06:59.321Z,101001.88
2023-03-16T00:09:31.415Z,100999.91
2023-03-16T00:11:59.339Z,100997.31
2023-03-16T00:14:27.146Z,101008.16
2023-03-16T00:16:55.024Z,101005.72
2023-03-16T00:19:23.438Z,100999.31
2023-03-16T00:21:51.353Z,100999.91
2023-03-16T00:24:19.236Z,101000.78
2023-03-16T00:26:47.415Z,101003.34
2023-03-16T00:29:15.152Z,101002.94
2023-03-16T00:31:44.044Z,101004.81
2023-03-16T00:34:12.073Z,100999.78
2023-03-16T00:36:39.874Z,101009.47
2023-03-16T00:39:07.869Z,101006.44
2023-03-16T00:41:38.076Z,101009.59
2023-03-16T00:44:06.176Z,101015.34
2023-03-16T00:46:34.067Z,101018.75
2023-03-16T00:49:02.719Z,101022.63
2023-03-16T00:51:33.692Z,101021.34
2023-03-16T00:54:01.515Z,101026.91
2023-03-16T00:56:29.292Z,101013.97
2023-03-16T00:58:57.855Z,101024.81
2023-03-16T01:01:27.489Z,101024.50
2023-03-16T01:03:56.007Z,101024.94
2023-03-16T01:06:23.890Z,101021.06
2023-03-16T01:08:52.378Z,101024.81
2023-03-16T01:11:20.269Z,101022.09
2023-03-16T01:13:48.162Z,101021.53
2023-03-16T01:16:16.079Z,101016.97
2023-03-16T01:18:43.846Z,101019.41
2023-03-16T01:21:13.916Z,101011.69
2023-03-16T01:23:42.135Z,101017.81
2023-03-16T01:26:10.081Z,101023.38
2023-03-16T01:28:37.822Z,101017.25
2023-03-16T01:31:05.652Z,101016.25
2023-03-16T01:33:33.622Z,101019.69
2023-03-16T01:36:01.503Z,101017.25
2023-03-16T01:38:29.488Z,101015.47
2023-03-16T01:40:57.228Z,101019.41
2023-03-16T01:43:25.302Z,101012.00
2023-03-16T01:45:53.947Z,101006.72
2023-03-16T01:48:22.678Z,101009.13
2023-03-16T01:50:52.409Z,101005.72
2023-03-16T01:53:20.881Z,101008.44
2023-03-16T01:55:48.670Z,101008.03
2023-03-16T01:58:16.474Z,100998.88
2023-03-16T02:00:45.795Z,101006.88
2023-03-16T02:03:13.892Z,101004.00
2023-03-16T02:05:42.365Z,100999.28
2023-03-16T02:08:10.234Z,100997.09
2023-03-16T02:10:38.002Z,101002.00
2023-03-16T02:13:05.801Z,100996.72
2023-03-16T02:15:36.067Z,100993.47
2023-03-16T02:18:03.898Z,100990.59
2023-03-16T02:20:32.270Z,100984.31
2023-03-16T02:23:00.106Z,100991.59
2023-03-16T02:25:27.955Z,100995.78
2023-03-16T02:27:55.762Z,100994.91
2023-03-16T02:30:23.583Z,100996.78
2023-03-16T02:32:52.536Z,100994.22
2023-03-16T02:35:20.408Z,101004.22
2023-03-16T02:37:48.184Z,101001.50
2023-03-16T02:40:15.933Z,101001.19
2023-03-16T02:42:43.681Z,101001.19
2023-03-16T02:45:11.519Z,101000.47
2023-03-16T02:47:39.257Z,100996.53
2023-03-16T02:50:07.252Z,100992.97
2023-03-16T02:52:35.296Z,101004.22
2023-03-16T02:55:03.144Z,101002.03
2023-03-16T02:57:31.725Z,101006.91
2023-03-16T02:59:59.463Z,101015.34
2023-03-16T03:02:27.220Z,101009.53
2023-03-16T03:04:55.201Z,101005.25
2023-03-16T03:07:32.308Z,101006.97
2023-03-16T03:10:00.333Z,101008.09
2023-03-16T03:12:28.168Z,101011.53
2023-03-16T03:14:57.264Z,101007.97
2023-03-16T03:17:29.968Z,101012.25
2023-03-16T03:19:57.786Z,101016.25
2023-03-16T03:22:26.250Z,101022.81
2023-03-16T03:24:54.011Z,101024.69
2023-03-16T03:27:22.649Z,101032.50
2023-03-16T03:29:50.481Z,101027.78
2023-03-16T03:32:18.231Z,101026.78
2023-03-16T03:34:46.161Z,101032.38
2023-03-16T03:37:13.862Z,101021.53
2023-03-16T03:39:41.589Z,101023.25
2023-03-16T03:42:09.370Z,101022.97
2023-03-16T03:44:37.363Z,101023.38
2023-03-16T03:47:05.858Z,101023.66
2023-03-16T03:49:33.681Z,101028.09
2023-03-16T03:52:04.758Z,101026.25
2023-03-16T03:54:32.526Z,101020.09
2023-03-16T03:57:00.298Z,101014.13
2023-03-16T03:59:29.044Z,101019.66
2023-03-16T04:01:56.864Z,101012.03
2023-03-16T04:04:24.672Z,101014.84
2023-03-16T04:06:52.456Z,101015.69
2023-03-16T04:09:20.268Z,101005.56
2023-03-16T04:11:48.074Z,101004.72
2023-03-16T04:14:15.861Z,101012.84
2023-03-16T04:16:44.407Z,101011.69
2023-03-16T04:19:12.719Z,101010.94
2023-03-16T04:21:40.581Z,101012.50
2023-03-16T04:24:08.301Z,101005.34
2023-03-16T04:26:36.083Z,101003.94
2023-03-16T04:29:03.901Z,101004.81
2023-03-16T04:31:31.630Z,101013.25
2023-03-16T04:33:59.410Z,101010.53
2023-03-16T04:36:27.267Z,101013.69
2023-03-16T04:38:55.088Z,101011.44
2023-03-16T04:41:22.843Z,101011.16
2023-03-16T04:43:50.658Z,101003.59
2023-03-16T04:46:18.517Z,101004.31
2023-03-16T04:48:46.362Z,101005.59
2023-03-16T04:51:14.156Z,101009.19
2023-03-16T04:53:41.914Z,101002.88
2023-03-16T04:56:09.764Z,101009.31
2023-03-16T04:58:37.497Z,101007.00
2023-03-16T05:01:05.271Z,101004.31
2023-03-16T05:03:34.807Z,101016.16
2023-03-16T05:06:02.632Z,101017.00
2023-03-16T05:08:32.316Z,101014.31
2023-03-16T05:11:00.305Z,101011.19
2023-03-16T05:13:28.068Z,101014.31
2023-03-16T05:15:55.923Z,101017.16
2023-03-16T05:18:23.712Z,101022.44
2023-03-16T05:20:51.986Z,101023.44
2023-03-16T05:23:19.749Z,101023.81
2023-03-16T05:25:47.446Z,101028.72
2023-03-16T05:28:15.221Z,101034.13
2023-03-16T05:30:43.358Z,101032.44
2023-03-16T05:33:11.397Z,101035.59
2023-03-16T05:35:39.394Z,101036.84
2023-03-16T05:38:07.505Z,101034.44
2023-03-16T05:40:36.647Z,101035.56
2023-03-16T05:43:04.491Z,101031.72
2023-03-16T05:45:32.360Z,101029.31
2023-03-16T05:48:00.230Z,101037.47
2023-03-16T05:50:28.764Z,101037.47
2023-03-16T05:52:56.751Z,101036.56
2023-03-16T05:55:24.695Z,101032.56
2023-03-16T05:57:52.675Z,101038.84
2023-03-16T06:00:21.003Z,101045.53
2023-03-16T06:02:49.377Z,101043.97
2023-03-16T06:05:17.311Z,101051.97
2023-03-16T06:07:45.271Z,101044.13
2023-03-16T06:10:13.039Z,101055.81
2023-03-16T06:12:41.326Z,101057.13
2023-03-16T06:15:09.074Z,101054.56
2023-03-16T06:17:36.806Z,101049.69
2023-03-16T06:20:05.430Z,101052.72
2023-03-16T06:22:33.150Z,101056.97
2023-03-16T06:25:01.158Z,101062.41
2023-03-16T06:27:28.879Z,101060.41
2023-03-16T06:29:56.674Z,101066.25
2023-03-16T06:32:24.473Z,101058.84
2023-03-16T06:34:52.551Z,101053.56
2023-03-16T06:37:20.385Z,101060.00
2023-03-16T06:39:48.080Z,101057.53
2023-03-16T06:42:15.825Z,101059.09
2023-03-16T06:44:43.769Z,101064.38
2023-03-16T06:47:11.879Z,101061.13
2023-03-16T06:49:39.594Z,101054.81
2023-03-16T06:52:07.410Z,101059.56
2023-03-16T06:54:37.474Z,101060.22
2023-03-16T06:57:05.265Z,101065.66
2023-03-16T06:59:33.077Z,101073.13
2023-03-16T07:02:01.384Z,101058.84
2023-03-16T07:04:29.348Z,101065.81
2023-03-16T07:06:57.255Z,101060.22
2023-03-16T07:09:25.035Z,101050.81
2023-03-16T07:11:53.107Z,101054.53
2023-03-16T07:14:23.380Z,101059.97
2023-03-16T07:16:51.273Z,101062.09
2023-03-16T07:19:19.080Z,101063.97
2023-03-16T07:21:46.799Z,101068.50
2023-03-16T07:24:15.248Z,101064.78
2023-03-16T07:26:43.894Z,101058.63
2023-03-16T07:29:12.420Z,101062.19
2023-03-16T07:31:40.280Z,101059.66
2023-03-16T07:34:08.100Z,101064.06
2023-03-16T07:36:35.837Z,101062.19
2023-03-16T07:39:03.584Z,101068.50
2023-03-16T07:41:32.764Z,101060.91
2023-03-16T07:44:00.803Z,101057.94
2023-03-16T07:46:28.659Z,101062.50
2023-03-16T07:48:56.492Z,101066.78
2023-03-16T07:51:24.196Z,101059.34
2023-03-16T07:53:51.999Z,101057.94
2023-03-16T07:56:19.784Z,101060.94
2023-03-16T07:58:47.574Z,101067.78
2023-03-16T08:01:15.323Z,101069.06
2023-03-16T08:03:43.202Z,101076.16
2023-03-16T08:06:12.095Z,101070.75
2023-03-16T08:08:39.948Z,101075.63
2023-03-16T08:11:07.731Z,101069.19
2023-03-16T08:13:35.494Z,101076.16
2023-03-16T08:16:03.365Z,101073.31
2023-03-16T08:18:31.477Z,101071.59
2023-03-16T08:20:59.268Z,101072.31
2023-03-16T08:23:27.023Z,101072.56
2023-03-16T08:25:55.139Z,101079.56
2023-03-16T08:28:22.931Z,101084.00
2023-03-16T08:30:51.090Z,101085.97
2023-03-16T08:33:22.999Z,101084.41
2023-03-16T08:35:51.221Z,101085.56
2023-03-16T08:38:19.331Z,101089.28
2023-03-16T08:40:48.674Z,101097.81
2023-03-16T08:43:17.212Z,101105.78
2023-03-16T08:45:45.317Z,101099.22
2023-03-16T08:48:13.141Z,101100.94
2023-03-16T08:50:41.198Z,101095.22
2023-03-16T08:53:09.600Z,101095.66
2023-03-16T08:55:37.753Z,101096.38
2023-03-16T08:58:05.478Z,101095.34
2023-03-16T09:00:33.232Z,101104.50
2023-03-16T09:03:02.774Z,101100.09
2023-03-16T09:05:30.754Z,101105.22
2023-03-16T09:07:58.857Z,101102.63
2023-03-16T09:10:27.830Z,101102.59
2023-03-16T09:12:55.739Z,101100.03
2023-03-16T09:15:23.486Z,101088.31
2023-03-16T09:17:51.820Z,101093.88
2023-03-16T09:20:26.213Z,101092.91
2023-03-16T09:22:54.595Z,101086.63
2023-03-16T09:25:22.417Z,101091.75
2023-03-16T09:27:50.758Z,101083.72
2023-03-16T09:30:19.034Z,101084.84
2023-03-16T09:32:48.868Z,101078.00
2023-03-16T09:35:16.832Z,101085.28
2023-03-16T09:38:01.044Z,101090.88
2023-03-16T09:40:33.405Z,101092.84
2023-03-16T09:43:02.062Z,101087.41
2023-03-16T09:45:30.112Z,101090.72
2023-03-16T09:47:58.227Z,101093.44
2023-03-16T09:50:28.165Z,101092.44
2023-03-16T09:52:58.747Z,101091.13
2023-03-16T09:55:27.103Z,101084.13
2023-03-16T09:57:55.287Z,101087.25
2023-03-16T10:00:24.113Z,101089.13
2023-03-16T10:02:52.210Z,101084.38
2023-03-16T10:05:20.615Z,101080.97
2023-03-16T10:07:48.449Z,101086.53
2023-03-16T10:10:16.199Z,101091.69
2023-03-16T10:12:44.041Z,101089.66
2023-03-16T10:15:11.854Z,101093.69
2023-03-16T10:17:39.669Z,101090.34
2023-03-16T10:20:09.151Z,101089.19
2023-03-16T10:22:37.154Z,101084.63
2023-03-16T10:25:04.957Z,101083.16
2023-03-16T10:27:32.675Z,101075.00
2023-03-16T10:30:02.124Z,101071.28
2023-03-16T10:32:30.793Z,101078.03
2023-03-16T10:34:58.693Z,101070.72
2023-03-16T10:37:28.360Z,101074.47
2023-03-16T10:39:56.583Z,101072.59
2023-03-16T10:42:24.378Z,101070.59
2023-03-16T10:44:52.323Z,101063.22
2023-03-16T10:47:20.160Z,101061.22
2023-03-16T10:49:51.228Z,101062.91
2023-03-16T10:52:19.701Z,101062.22
2023-03-16T10:54:47.822Z,101058.19
2023-03-16T10:57:16.799Z,101050.75
2023-03-16T10:59:44.591Z,101046.00
2023-03-16T11:02:12.696Z,101042.97
2023-03-16T11:04:40.811Z,101036.31
2023-03-16T11:07:09.257Z,101034.22
2023-03-16T11:09:37.623Z,101027.59
2023-03-16T11:12:07.463Z,101028.00
2023-03-16T11:14:37.340Z,101026.44
2023-03-16T11:17:05.853Z,101020.16
2023-03-16T11:19:34.610Z,101026.06
2023-03-16T11:22:02.392Z,101025.22
2023-03-16T11:24:30.217Z,101024.50
2023-03-16T11:26:58.001Z,101020.81
2023-03-16T11:29:25.760Z,101025.06
2023-03-16T11:31:54.005Z,101018.94
2023-03-16T11:34:21.732Z,101014.66
2023-03-16T11:36:49.687Z,101003.09
2023-03-16T11:39:17.475Z,101004.66
2023-03-16T11:41:45.774Z,101004.50
2023-03-16T11:44:13.820Z,101007.22
2023-03-16T11:46:41.866Z,101003.50
2023-03-16T11:49:09.578Z,100998.59
2023-03-16T11:51:37.748Z,100999.28
2023-03-16T11:54:05.507Z,100984.34
2023-03-16T11:56:33.509Z,100987.91
2023-03-16T11:59:01.383Z,100983.31
2023-03-16T12:01:30.750Z,100984.53
2023-03-16T12:03:59.291Z,100987.66
2023-03-16T12:06:27.513Z,100979.34
2023-03-16T12:08:55.841Z,100965.28
2023-03-16T12:11:23.580Z,100983.28
2023-03-16T12:13:52.440Z,100971.59
2023-03-16T12:18:57.793Z,100962.94
2023-03-16T12:21:25.703Z,100954.97
2023-03-16T12:23:53.512Z,100959.38
2023-03-16T12:26:22.342Z,100945.09
2023-03-16T12:28:50.137Z,100940.16
2023-03-16T12:31:17.996Z,100942.22
2023-03-16T12:33:45.979Z,100939.88
2023-03-16T12:36:13.769Z,100933.13
2023-03-16T12:38:42.017Z,100921.91
2023-03-16T12:41:10.287Z,100914.03
2023-03-16T12:43:38.175Z,100914.22
2023-03-16T12:46:08.976Z,100911.88
2023-03-16T12:48:36.846Z,100905.22
2023-03-16T12:51:05.044Z,100905.91
2023-03-16T12:53:32.839Z,100899.28
2023-03-16T12:56:01.088Z,100900.84
2023-03-16T12:58:28.966Z,100900.22
2023-03-16T13:00:57.149Z,100900.03
2023-03-16T13:03:25.359Z,100892.75
2023-03-16T13:05:53.173Z,100886.78
2023-03-16T13:08:21.275Z,100886.59
2023-03-16T13:10:49.217Z,100893.00
2023-03-16T13:13:17.225Z,100885.41
2023-03-16T13:15:47.428Z,100886.97
2023-03-16T13:18:15.363Z,100887.47
2023-03-16T13:20:43.174Z,100885.44
2023-03-16T13:23:11.016Z,100884.75
2023-03-16T13:25:38.818Z,100885.78
2023-03-16T13:28:06.726Z,100877.31
2023-03-16T13:30:34.505Z,100879.19
2023-03-16T13:33:02.320Z,100871.88
2023-03-16T13:35:30.318Z,100890.72
2023-03-16T13:37:58.497Z,100891.59
2023-03-16T13:40:27.469Z,100881.91
2023-03-16T13:42:56.318Z,100881.19
2023-03-16T13:45:24.333Z,100890.72
2023-03-16T13:47:52.076Z,100893.31
2023-03-16T13:50:20.864Z,100890.41
2023-03-16T13:52:51.408Z,100888.41
2023-03-16T13:55:19.720Z,100885.34
2023-03-16T13:57:47.497Z,100895.56
2023-03-16T14:00:17.086Z,100884.31
2023-03-16T14:02:44.944Z,100882.56
2023-03-16T14:05:12.878Z,100883.28
2023-03-16T14:07:40.652Z,100874.59
2023-03-16T14:10:08.666Z,100876.16
2023-03-16T14:12:37.817Z,100868.97
2023-03-16T14:15:06.183Z,100868.13
2023-03-16T14:17:33.945Z,100850.47
2023-03-16T14:20:05.261Z,100846.50
2023-03-16T14:22:33.947Z,100840.09
2023-03-16T14:25:05.156Z,100832.78
2023-03-16T14:27:32.991Z,100829.22
2023-03-16T14:30:00.712Z,100827.00
2023-03-16T14:32:30.222Z,100820.59
2023-03-16T14:35:00.275Z,100818.38
2023-03-16T14:37:28.119Z,100823.53
2023-03-16T14:39:55.857Z,100816.81
2023-03-16T14:42:23.642Z,100829.72
2023-03-16T14:44:54.404Z,100815.84
2023-03-16T14:47:22.213Z,100812.44
2023-03-16T14:49:49.942Z,100809.09
2023-03-16T14:52:17.658Z,100804.69
2023-03-16T14:54:45.716Z,100792.72
2023-03-16T14:57:14.404Z,100787.75
2023-03-16T14:59:42.238Z,100780.91
2023-03-16T15:02:10.024Z,100778.72
2023-03-16T15:04:38.043Z,100777.34
2023-03-16T15:07:05.879Z,100772.41
2023-03-16T15:09:34.355Z,100770.28
2023-03-16T15:12:02.157Z,100760.78
2023-03-16T15:14:47.573Z,100756.97
2023-03-16T15:17:15.326Z,100755.28
2023-03-16T15:19:43.138Z,100752.56
2023-03-16T15:22:11.343Z,100763.47
2023-03-16T15:24:39.098Z,100756.97
2023-03-16T15:27:06.872Z,100756.50
2023-03-16T15:29:34.618Z,100758.00
2023-03-16T15:32:02.417Z,100752.94
2023-03-16T15:34:30.252Z,100756.03
2023-03-16T15:36:58.083Z,100761.16
2023-03-16T15:39:25.855Z,100753.34
2023-03-16T15:41:53.586Z,100756.47
2023-03-16T15:44:21.364Z,100754.47
2023-03-16T15:46:49.206Z,100759.75
2023-03-16T15:49:17.062Z,100753.34
2023-03-16T15:51:44.808Z,100755.75
2023-03-16T15:54:12.756Z,100743.97
2023-03-16T15:56:53.327Z,100734.84
2023-03-16T15:59:23.398Z,100738.09
2023-03-16T16:01:51.891Z,100737.91
2023-03-16T16:04:20.050Z,100745.75
2023-03-16T16:06:47.979Z,100739.16
2023-03-16T16:09:15.791Z,100740.53
2023-03-16T16:11:43.624Z,100736.63
2023-03-16T16:14:11.511Z,100735.78
2023-03-16T16:16:39.294Z,100730.03
2023-03-16T16:19:07.092Z,100730.53
2023-03-16T16:21:35.088Z,100729.34
2023-03-16T16:24:03.352Z,100728.88
2023-03-16T16:26:47.008Z,100728.03
2023-03-16T16:29:16.315Z,100723.78
2023-03-16T16:31:44.177Z,100727.50
2023-03-16T16:34:12.477Z,100721.53
2023-03-16T16:36:40.330Z,100725.44
2023-03-16T16:39:08.452Z,100724.41
2023-03-16T16:41:36.816Z,100721.25
2023-03-16T16:44:08.417Z,100716.41
2023-03-16T16:46:36.736Z,100723.34
2023-03-16T16:49:05.050Z,100735.94
2023-03-16T16:51:33.219Z,100729.97
2023-03-16T16:54:01.042Z,100718.72
2023-03-16T16:56:28.923Z,100720.59
2023-03-16T16:58:56.711Z,100727.25
2023-03-16T17:01:24.530Z,100713.31
2023-03-16T17:03:52.301Z,100731.34
2023-03-16T17:06:20.294Z,100725.25
2023-03-16T17:08:48.049Z,100713.38
2023-03-16T17:11:15.965Z,100712.22
2023-03-16T17:13:46.299Z,100711.53
2023-03-16T17:16:16.657Z,100714.44
2023-03-16T17:18:44.995Z,100712.44
2023-03-16T17:21:12.776Z,100705.34
2023-03-16T17:23:40.740Z,100707.03
2023-03-16T17:26:09.783Z,100695.84
2023-03-16T17:28:38.707Z,100698.91
2023-03-16T17:31:06.995Z,100700.09
2023-03-16T17:33:35.061Z,100704.50
2023-03-16T17:36:03.138Z,100710.63
2023-03-16T17:38:31.077Z,100711.59
2023-03-16T17:41:01.413Z,100711.75
2023-03-16T17:43:29.435Z,100703.22
2023-03-16T17:45:57.596Z,100687.94
2023-03-16T17:48:25.486Z,100695.13
2023-03-16T17:50:53.357Z,100696.97
2023-03-16T17:53:21.708Z,100686.78
2023-03-16T17:55:49.473Z,100693.09
2023-03-16T17:58:17.256Z,100696.69
2023-03-16T18:00:46.962Z,100698.94
2023-03-16T18:03:14.964Z,100701.66
2023-03-16T18:05:42.796Z,100690.94
2023-03-16T18:08:10.564Z,100689.75
2023-03-16T18:10:38.296Z,100690.09
2023-03-16T18:13:06.063Z,100687.53
2023-03-16T18:15:33.873Z,100689.41
2023-03-16T18:18:01.656Z,100682.59
2023-03-16T18:20:31.433Z,100685.84
2023-03-16T18:22:59.414Z,100689.75
2023-03-16T18:25:27.490Z,100690.09
2023-03-16T18:27:55.268Z,100680.06
2023-03-16T18:30:24.939Z,100682.09
2023-03-16T18:32:53.038Z,100679.88
2023-03-16T18:35:21.371Z,100675.28
2023-03-16T18:37:49.126Z,100671.16
2023-03-16T18:40:17.017Z,100664.44
2023-03-16T18:42:44.924Z,100672.47
2023-03-16T18:45:13.156Z,100667.97
2023-03-16T18:47:43.827Z,100671.97
2023-03-16T18:50:11.742Z,100670.88
2023-03-16T18:52:39.450Z,100666.13
2023-03-16T18:55:07.213Z,100669.69
2023-03-16T18:57:34.967Z,100679.91
2023-03-16T19:00:02.951Z,100675.00
2023-03-16T19:02:31.138Z,100671.97
2023-03-16T19:04:59.006Z,100687.00
2023-03-16T19:07:26.760Z,100682.25
2023-03-16T19:09:54.713Z,100684.50
2023-03-16T19:12:23.044Z,100681.28
2023-03-16T19:14:50.796Z,100674.47
2023-03-16T19:17:18.576Z,100678.91
2023-03-16T19:19:46.364Z,100680.00
2023-03-16T19:22:14.109Z,100694.50
2023-03-16T19:24:42.310Z,100697.25
2023-03-16T19:27:10.279Z,100695.41
2023-03-16T19:29:38.209Z,100690.66
2023-03-16T19:32:06.095Z,100678.78
2023-03-16T19:34:34.524Z,100684.91
2023-03-16T19:37:02.350Z,100690.03
2023-03-16T19:39:30.334Z,100678.81
2023-03-16T19:41:58.164Z,100670.00
2023-03-16T19:44:26.368Z,100675.78
2023-03-16T19:46:55.022Z,100676.00
2023-03-16T19:49:22.829Z,100673.59
2023-03-16T19:51:51.291Z,100678.63
2023-03-16T19:54:19.179Z,100680.44
2023-03-16T19:56:47.130Z,100678.25
2023-03-16T19:59:15.469Z,100673.34
2023-03-16T20:01:43.250Z,100665.91
2023-03-16T20:04:11.054Z,100662.50
2023-03-16T20:06:38.874Z,100665.41
2023-03-16T20:09:06.742Z,100663.69
2023-03-16T20:11:34.515Z,100663.91
2023-03-16T20:14:03.546Z,100669.66
2023-03-16T20:16:32.988Z,100666.47
2023-03-16T20:19:00.819Z,100656.59
2023-03-16T20:21:28.567Z,100651.31
2023-03-16T20:23:56.388Z,100654.53
2023-03-16T20:26:24.362Z,100651.31
2023-03-16T20:28:52.134Z,100647.75
2023-03-16T20:31:19.997Z,100642.31
2023-03-16T20:33:47.780Z,100641.63
2023-03-16T20:36:15.791Z,100637.91
2023-03-16T20:38:43.670Z,100636.56
2023-03-16T20:41:11.869Z,100630.25
2023-03-16T20:43:39.659Z,100631.28
2023-03-16T20:46:07.450Z,100630.25
2023-03-16T20:48:35.265Z,100632.31
2023-03-16T20:51:03.258Z,100634.53
2023-03-16T20:53:31.318Z,100629.94
2023-03-16T20:55:59.097Z,100630.47
2023-03-16T20:58:26.910Z,100631.31
2023-03-16T21:00:57.438Z,100630.47
2023-03-16T21:03:25.268Z,100631.13
2023-03-16T21:05:53.157Z,100634.19
2023-03-16T21:08:20.954Z,100632.31
2023-03-16T21:10:48.814Z,100636.72
2023-03-16T21:13:16.609Z,100634.56
2023-03-16T21:15:44.765Z,100633.03
2023-03-16T21:18:12.518Z,100630.31
2023-03-16T21:20:40.976Z,100626.56
2023-03-16T21:23:09.631Z,100621.47
2023-03-16T21:25:37.506Z,100624.53
2023-03-16T21:28:05.395Z,100617.56
2023-03-16T21:30:33.286Z,100615.00
2023-03-16T21:33:02.046Z,100619.78
2023-03-16T21:35:30.246Z,100616.72
2023-03-16T21:37:58.609Z,100612.47
2023-03-16T21:40:26.366Z,100610.41
2023-03-16T21:42:54.141Z,100601.59
2023-03-16T21:45:21.869Z,100597.84
2023-03-16T21:47:49.594Z,100593.75
2023-03-16T21:50:17.617Z,100596.66
2023-03-16T21:52:45.363Z,100583.44
2023-03-16T21:55:17.528Z,100583.09
2023-03-16T21:57:51.153Z,100579.53
2023-03-16T22:00:19.440Z,100583.44
2023-03-16T22:02:47.800Z,100581.72
2023-03-16T22:05:15.598Z,100567.44
2023-03-16T22:07:43.470Z,100568.63
2023-03-16T22:10:11.514Z,100568.63
2023-03-16T22:12:39.308Z,100573.03
2023-03-16T22:15:07.326Z,100559.25
2023-03-16T22:17:35.100Z,100563.84
2023-03-16T22:20:03.659Z,100566.91
2023-03-16T22:22:31.472Z,100562.50
2023-03-16T22:24:59.375Z,100564.53
2023-03-16T22:27:27.344Z,100568.44
2023-03-16T22:29:55.172Z,100562.34
2023-03-16T22:32:22.998Z,100559.28
2023-03-16T22:34:50.787Z,100561.50
2023-03-16T22:37:18.659Z,100567.78
2023-03-16T22:39:46.530Z,100558.28
2023-03-16T22:42:14.215Z,100562.16
2023-03-16T22:44:41.923Z,100559.59
2023-03-16T22:47:09.733Z,100553.69
2023-03-16T22:49:37.645Z,100550.44
2023-03-16T22:52:05.452Z,100554.69
2023-03-16T22:54:33.232Z,100540.78
2023-03-16T22:57:01.017Z,100539.41
2023-03-16T22:59:28.850Z,100542.81
2023-03-16T23:01:57.231Z,100534.66
2023-03-16T23:04:26.004Z,100529.56
2023-03-16T23:06:53.807Z,100532.94
2023-03-16T23:09:22.019Z,100528.03
2023-03-16T23:11:51.687Z,100525.97
2023-03-16T23:14:21.272Z,100513.44
2023-03-16T23:16:49.126Z,100509.88
2023-03-16T23:19:24.309Z,100500.19
2023-03-16T23:21:52.645Z,100505.97
2023-03-16T23:24:20.732Z,100508.34
2023-03-16T23:26:48.453Z,100497.84
2023-03-16T23:29:16.166Z,100496.13
2023-03-16T23:31:44.104Z,100489.50
2023-03-16T23:34:11.879Z,100489.50
2023-03-16T23:36:39.781Z,100479.81
2023-03-16T23:39:07.601Z,100483.91
2023-03-16T23:41:35.369Z,100479.47
2023-03-16T23:44:03.107Z,100473.38
2023-03-16T23:46:30.995Z,100472.34
2023-03-16T23:48:58.725Z,100472.34
2023-03-16T23:51:26.719Z,100462.19
2023-03-16T23:53:54.622Z,100464.22
2023-03-16T23:56:22.560Z,100458.28
2023-03-16T23:58:50.771Z,100461.84
